sensor_id;sensor_type;location;lat;lon;timestamp;P1;durP1;ratioP1;P2;durP2;ratioP2
20391;SDS011;10355;53.688;10.078;2023-06-10T00:02:37;4.82;;;2.28;;
20391;SDS011;10355;53.688;10.078;2023-06-10T00:05:21;4.95;;;2.15;;
20391;SDS011;10355;53.688;10.078;2023-06-10T00:08:04;5.10;;;2.30;;
20391;SDS011;10355;53.688;10.078;2023-06-10T00:10:49;5.20;;;2.17;;
20391;SDS011;10355;53.688;10.078;2023-06-10T00:13:31;4.97;;;2.35;;
20391;SDS011;10355;53.688;10.078;2023-06-10T00:16:15;5.53;;;1.90;;
20391;SDS011;10355;53.688;10.078;2023-06-10T00:18:59;7.55;;;1.88;;
20391;SDS011;10355;53.688;10.078;2023-06-10T00:21:42;6.10;;;2.05;;
20391;SDS011;10355;53.688;10.078;2023-06-10T00:24:26;4.03;;;2.05;;
20391;SDS011;10355;53.688;10.078;2023-06-10T00:27:08;4.18;;;1.95;;
20391;SDS011;10355;53.688;10.078;2023-06-10T00:29:51;5.20;;;2.05;;
20391;SDS011;10355;53.688;10.078;2023-06-10T00:32:35;4.88;;;1.90;;
20391;SDS011;10355;53.688;10.078;2023-06-10T00:35:18;3.67;;;2.00;;
20391;SDS011;10355;53.688;10.078;2023-06-10T00:38:01;7.90;;;2.33;;
20391;SDS011;10355;53.688;10.078;2023-06-10T00:40:43;3.70;;;2.15;;
20391;SDS011;10355;53.688;10.078;2023-06-10T00:43:26;6.95;;;2.50;;
20391;SDS011;10355;53.688;10.078;2023-06-10T00:46:09;4.93;;;2.40;;
20391;SDS011;10355;53.688;10.078;2023-06-10T00:48:54;6.10;;;2.13;;
20391;SDS011;10355;53.688;10.078;2023-06-10T00:51:37;6.38;;;2.42;;
20391;SDS011;10355;53.688;10.078;2023-06-10T00:54:21;6.18;;;2.38;;
20391;SDS011;10355;53.688;10.078;2023-06-10T00:57:04;5.85;;;2.15;;
20391;SDS011;10355;53.688;10.078;2023-06-10T00:59:50;5.22;;;2.05;;
20391;SDS011;10355;53.688;10.078;2023-06-10T01:02:33;4.95;;;1.85;;
20391;SDS011;10355;53.688;10.078;2023-06-10T01:05:17;4.35;;;2.15;;
20391;SDS011;10355;53.688;10.078;2023-06-10T01:08:01;4.63;;;2.28;;
20391;SDS011;10355;53.688;10.078;2023-06-10T01:10:47;4.40;;;2.25;;
20391;SDS011;10355;53.688;10.078;2023-06-10T01:13:31;5.40;;;2.10;;
20391;SDS011;10355;53.688;10.078;2023-06-10T01:16:14;6.97;;;2.22;;
20391;SDS011;10355;53.688;10.078;2023-06-10T01:18:57;6.22;;;2.00;;
20391;SDS011;10355;53.688;10.078;2023-06-10T01:21:43;5.57;;;2.13;;
20391;SDS011;10355;53.688;10.078;2023-06-10T01:24:32;3.25;;;2.00;;
20391;SDS011;10355;53.688;10.078;2023-06-10T01:27:15;5.13;;;2.17;;
20391;SDS011;10355;53.688;10.078;2023-06-10T01:30:04;3.83;;;2.13;;
20391;SDS011;10355;53.688;10.078;2023-06-10T01:32:50;4.47;;;1.98;;
20391;SDS011;10355;53.688;10.078;2023-06-10T01:35:33;3.67;;;1.80;;
20391;SDS011;10355;53.688;10.078;2023-06-10T01:38:20;7.15;;;2.13;;
20391;SDS011;10355;53.688;10.078;2023-06-10T01:41:03;5.60;;;1.75;;
20391;SDS011;10355;53.688;10.078;2023-06-10T01:43:47;5.80;;;1.83;;
20391;SDS011;10355;53.688;10.078;2023-06-10T01:46:30;8.25;;;1.80;;
20391;SDS011;10355;53.688;10.078;2023-06-10T01:49:13;5.00;;;2.05;;
20391;SDS011;10355;53.688;10.078;2023-06-10T01:51:57;5.00;;;1.85;;
20391;SDS011;10355;53.688;10.078;2023-06-10T01:54:41;5.35;;;2.17;;
20391;SDS011;10355;53.688;10.078;2023-06-10T01:57:25;5.95;;;1.60;;
20391;SDS011;10355;53.688;10.078;2023-06-10T02:00:09;5.68;;;1.83;;
20391;SDS011;10355;53.688;10.078;2023-06-10T02:02:58;4.15;;;1.75;;
20391;SDS011;10355;53.688;10.078;2023-06-10T02:05:41;5.57;;;2.10;;
20391;SDS011;10355;53.688;10.078;2023-06-10T02:08:24;4.05;;;1.83;;
20391;SDS011;10355;53.688;10.078;2023-06-10T02:11:10;5.63;;;1.70;;
20391;SDS011;10355;53.688;10.078;2023-06-10T02:13:53;4.47;;;2.05;;
20391;SDS011;10355;53.688;10.078;2023-06-10T02:16:36;3.78;;;1.92;;
20391;SDS011;10355;53.688;10.078;2023-06-10T02:19:19;3.70;;;1.88;;
20391;SDS011;10355;53.688;10.078;2023-06-10T02:22:03;4.55;;;1.95;;
20391;SDS011;10355;53.688;10.078;2023-06-10T02:24:45;3.53;;;1.73;;
20391;SDS011;10355;53.688;10.078;2023-06-10T02:27:29;5.32;;;1.95;;
20391;SDS011;10355;53.688;10.078;2023-06-10T02:30:12;4.53;;;1.90;;
20391;SDS011;10355;53.688;10.078;2023-06-10T02:32:55;3.97;;;1.92;;
20391;SDS011;10355;53.688;10.078;2023-06-10T02:35:41;7.40;;;1.95;;
20391;SDS011;10355;53.688;10.078;2023-06-10T02:38:23;5.78;;;2.05;;
20391;SDS011;10355;53.688;10.078;2023-06-10T02:41:07;4.65;;;1.88;;
20391;SDS011;10355;53.688;10.078;2023-06-10T02:43:51;3.17;;;1.70;;
20391;SDS011;10355;53.688;10.078;2023-06-10T02:46:34;6.28;;;2.20;;
20391;SDS011;10355;53.688;10.078;2023-06-10T02:49:18;3.88;;;1.95;;
20391;SDS011;10355;53.688;10.078;2023-06-10T02:52:01;5.05;;;1.92;;
20391;SDS011;10355;53.688;10.078;2023-06-10T02:54:44;2.95;;;1.80;;
20391;SDS011;10355;53.688;10.078;2023-06-10T02:57:27;3.47;;;1.80;;
20391;SDS011;10355;53.688;10.078;2023-06-10T03:00:11;4.43;;;2.00;;
20391;SDS011;10355;53.688;10.078;2023-06-10T03:02:57;4.28;;;1.80;;
20391;SDS011;10355;53.688;10.078;2023-06-10T03:05:48;3.78;;;1.73;;
20391;SDS011;10355;53.688;10.078;2023-06-10T03:08:33;4.05;;;1.67;;
20391;SDS011;10355;53.688;10.078;2023-06-10T03:11:19;4.10;;;2.03;;
20391;SDS011;10355;53.688;10.078;2023-06-10T03:14:03;3.47;;;2.00;;
20391;SDS011;10355;53.688;10.078;2023-06-10T03:16:48;3.88;;;1.85;;
20391;SDS011;10355;53.688;10.078;2023-06-10T03:19:31;4.30;;;1.88;;
20391;SDS011;10355;53.688;10.078;2023-06-10T03:22:16;5.53;;;1.88;;
20391;SDS011;10355;53.688;10.078;2023-06-10T03:25:07;3.97;;;1.92;;
20391;SDS011;10355;53.688;10.078;2023-06-10T03:27:57;4.72;;;1.90;;
20391;SDS011;10355;53.688;10.078;2023-06-10T03:30:40;4.22;;;2.10;;
20391;SDS011;10355;53.688;10.078;2023-06-10T03:33:25;3.25;;;1.60;;
20391;SDS011;10355;53.688;10.078;2023-06-10T03:36:08;5.18;;;1.83;;
20391;SDS011;10355;53.688;10.078;2023-06-10T03:38:51;3.70;;;1.88;;
20391;SDS011;10355;53.688;10.078;2023-06-10T03:41:35;2.78;;;1.70;;
20391;SDS011;10355;53.688;10.078;2023-06-10T03:44:18;3.65;;;1.80;;
20391;SDS011;10355;53.688;10.078;2023-06-10T03:47:01;5.40;;;1.73;;
20391;SDS011;10355;53.688;10.078;2023-06-10T03:49:46;4.07;;;1.63;;
20391;SDS011;10355;53.688;10.078;2023-06-10T03:52:29;5.57;;;1.75;;
20391;SDS011;10355;53.688;10.078;2023-06-10T03:55:13;5.25;;;1.90;;
20391;SDS011;10355;53.688;10.078;2023-06-10T03:57:59;4.47;;;1.80;;
20391;SDS011;10355;53.688;10.078;2023-06-10T04:00:41;2.30;;;1.48;;
20391;SDS011;10355;53.688;10.078;2023-06-10T04:03:24;3.63;;;1.65;;
20391;SDS011;10355;53.688;10.078;2023-06-10T04:06:09;5.10;;;1.75;;
20391;SDS011;10355;53.688;10.078;2023-06-10T04:08:51;6.05;;;1.77;;
20391;SDS011;10355;53.688;10.078;2023-06-10T04:11:35;5.47;;;1.92;;
20391;SDS011;10355;53.688;10.078;2023-06-10T04:14:17;3.63;;;1.70;;
20391;SDS011;10355;53.688;10.078;2023-06-10T04:17:04;4.43;;;1.63;;
20391;SDS011;10355;53.688;10.078;2023-06-10T04:19:48;4.28;;;1.80;;
20391;SDS011;10355;53.688;10.078;2023-06-10T04:22:33;4.88;;;2.08;;
20391;SDS011;10355;53.688;10.078;2023-06-10T04:25:16;3.97;;;1.52;;
20391;SDS011;10355;53.688;10.078;2023-06-10T04:27:58;3.72;;;1.85;;
20391;SDS011;10355;53.688;10.078;2023-06-10T04:30:41;4.78;;;1.80;;
20391;SDS011;10355;53.688;10.078;2023-06-10T04:33:25;6.35;;;1.90;;
20391;SDS011;10355;53.688;10.078;2023-06-10T04:36:07;6.47;;;2.10;;
20391;SDS011;10355;53.688;10.078;2023-06-10T04:38:53;5.35;;;1.80;;
20391;SDS011;10355;53.688;10.078;2023-06-10T04:41:36;8.15;;;2.20;;
20391;SDS011;10355;53.688;10.078;2023-06-10T04:44:19;7.28;;;1.58;;
20391;SDS011;10355;53.688;10.078;2023-06-10T04:47:03;5.25;;;1.73;;
20391;SDS011;10355;53.688;10.078;2023-06-10T04:49:46;3.85;;;1.83;;
20391;SDS011;10355;53.688;10.078;2023-06-10T04:52:28;4.00;;;1.75;;
20391;SDS011;10355;53.688;10.078;2023-06-10T04:55:12;6.03;;;1.40;;
20391;SDS011;10355;53.688;10.078;2023-06-10T04:57:55;5.95;;;1.40;;
20391;SDS011;10355;53.688;10.078;2023-06-10T05:00:38;7.57;;;1.65;;
20391;SDS011;10355;53.688;10.078;2023-06-10T05:03:21;4.38;;;1.40;;
20391;SDS011;10355;53.688;10.078;2023-06-10T05:06:04;7.20;;;1.48;;
20391;SDS011;10355;53.688;10.078;2023-06-10T05:08:46;3.05;;;1.50;;
20391;SDS011;10355;53.688;10.078;2023-06-10T05:11:30;6.68;;;1.45;;
20391;SDS011;10355;53.688;10.078;2023-06-10T05:14:13;4.10;;;1.27;;
20391;SDS011;10355;53.688;10.078;2023-06-10T05:16:57;3.35;;;1.40;;
20391;SDS011;10355;53.688;10.078;2023-06-10T05:19:40;4.28;;;1.30;;
20391;SDS011;10355;53.688;10.078;2023-06-10T05:22:23;3.35;;;1.40;;
20391;SDS011;10355;53.688;10.078;2023-06-10T05:25:06;2.45;;;1.17;;
20391;SDS011;10355;53.688;10.078;2023-06-10T05:27:51;5.38;;;1.38;;
20391;SDS011;10355;53.688;10.078;2023-06-10T05:30:34;3.75;;;1.50;;
20391;SDS011;10355;53.688;10.078;2023-06-10T05:33:17;3.90;;;1.20;;
20391;SDS011;10355;53.688;10.078;2023-06-10T05:35:59;7.10;;;1.55;;
20391;SDS011;10355;53.688;10.078;2023-06-10T05:38:42;3.42;;;1.08;;
20391;SDS011;10355;53.688;10.078;2023-06-10T05:41:25;4.85;;;1.30;;
20391;SDS011;10355;53.688;10.078;2023-06-10T05:44:09;6.15;;;1.20;;
20391;SDS011;10355;53.688;10.078;2023-06-10T05:46:54;4.85;;;1.27;;
20391;SDS011;10355;53.688;10.078;2023-06-10T05:49:37;3.65;;;1.05;;
20391;SDS011;10355;53.688;10.078;2023-06-10T05:52:20;4.70;;;1.25;;
20391;SDS011;10355;53.688;10.078;2023-06-10T05:55:03;5.25;;;1.17;;
20391;SDS011;10355;53.688;10.078;2023-06-10T05:57:46;5.20;;;1.00;;
20391;SDS011;10355;53.688;10.078;2023-06-10T06:00:30;6.57;;;1.20;;
20391;SDS011;10355;53.688;10.078;2023-06-10T06:03:13;2.25;;;1.02;;
20391;SDS011;10355;53.688;10.078;2023-06-10T06:05:56;3.40;;;1.30;;
20391;SDS011;10355;53.688;10.078;2023-06-10T06:08:39;4.15;;;1.20;;
20391;SDS011;10355;53.688;10.078;2023-06-10T06:11:21;3.83;;;1.30;;
20391;SDS011;10355;53.688;10.078;2023-06-10T06:14:04;6.53;;;1.20;;
20391;SDS011;10355;53.688;10.078;2023-06-10T06:16:48;5.70;;;1.23;;
20391;SDS011;10355;53.688;10.078;2023-06-10T06:19:31;4.00;;;1.15;;
20391;SDS011;10355;53.688;10.078;2023-06-10T06:22:13;2.83;;;1.15;;
20391;SDS011;10355;53.688;10.078;2023-06-10T06:24:56;5.40;;;1.40;;
20391;SDS011;10355;53.688;10.078;2023-06-10T06:27:39;4.30;;;0.90;;
20391;SDS011;10355;53.688;10.078;2023-06-10T06:30:22;3.80;;;1.25;;
20391;SDS011;10355;53.688;10.078;2023-06-10T06:33:06;3.92;;;1.33;;
20391;SDS011;10355;53.688;10.078;2023-06-10T06:35:48;5.95;;;1.45;;
20391;SDS011;10355;53.688;10.078;2023-06-10T06:38:31;5.50;;;1.23;;
20391;SDS011;10355;53.688;10.078;2023-06-10T06:41:14;7.28;;;1.55;;
20391;SDS011;10355;53.688;10.078;2023-06-10T06:43:56;8.82;;;1.27;;
20391;SDS011;10355;53.688;10.078;2023-06-10T06:46:44;3.50;;;1.38;;
20391;SDS011;10355;53.688;10.078;2023-06-10T06:49:28;5.30;;;1.30;;
20391;SDS011;10355;53.688;10.078;2023-06-10T06:52:11;3.80;;;1.48;;
20391;SDS011;10355;53.688;10.078;2023-06-10T06:54:54;5.63;;;1.38;;
20391;SDS011;10355;53.688;10.078;2023-06-10T06:57:37;4.43;;;1.23;;
20391;SDS011;10355;53.688;10.078;2023-06-10T07:00:19;4.53;;;1.17;;
20391;SDS011;10355;53.688;10.078;2023-06-10T07:03:02;8.35;;;1.60;;
20391;SDS011;10355;53.688;10.078;2023-06-10T07:05:47;4.65;;;1.33;;
20391;SDS011;10355;53.688;10.078;2023-06-10T07:08:29;5.63;;;1.40;;
20391;SDS011;10355;53.688;10.078;2023-06-10T07:11:12;4.63;;;1.30;;
20391;SDS011;10355;53.688;10.078;2023-06-10T07:13:55;4.43;;;1.30;;
20391;SDS011;10355;53.688;10.078;2023-06-10T07:16:37;3.15;;;1.25;;
20391;SDS011;10355;53.688;10.078;2023-06-10T07:19:21;5.72;;;1.58;;
20391;SDS011;10355;53.688;10.078;2023-06-10T07:22:06;4.80;;;1.42;;
20391;SDS011;10355;53.688;10.078;2023-06-10T07:24:48;6.65;;;1.42;;
20391;SDS011;10355;53.688;10.078;2023-06-10T07:27:32;6.15;;;1.70;;
20391;SDS011;10355;53.688;10.078;2023-06-10T07:30:15;4.28;;;1.58;;
20391;SDS011;10355;53.688;10.078;2023-06-10T07:32:58;3.15;;;1.17;;
20391;SDS011;10355;53.688;10.078;2023-06-10T07:35:43;7.82;;;1.55;;
20391;SDS011;10355;53.688;10.078;2023-06-10T07:38:27;3.00;;;1.30;;
20391;SDS011;10355;53.688;10.078;2023-06-10T07:41:10;3.17;;;1.23;;
20391;SDS011;10355;53.688;10.078;2023-06-10T07:43:53;4.35;;;1.30;;
20391;SDS011;10355;53.688;10.078;2023-06-10T07:46:37;6.03;;;1.65;;
20391;SDS011;10355;53.688;10.078;2023-06-10T07:49:20;7.00;;;1.52;;
20391;SDS011;10355;53.688;10.078;2023-06-10T07:52:03;3.60;;;1.50;;
20391;SDS011;10355;53.688;10.078;2023-06-10T07:54:47;5.68;;;1.30;;
20391;SDS011;10355;53.688;10.078;2023-06-10T07:57:30;3.55;;;1.50;;
20391;SDS011;10355;53.688;10.078;2023-06-10T08:00:16;7.95;;;1.55;;
20391;SDS011;10355;53.688;10.078;2023-06-10T08:02:59;6.68;;;1.67;;
20391;SDS011;10355;53.688;10.078;2023-06-10T08:05:42;8.80;;;1.77;;
20391;SDS011;10355;53.688;10.078;2023-06-10T08:08:25;4.25;;;1.27;;
20391;SDS011;10355;53.688;10.078;2023-06-10T08:11:09;3.63;;;1.58;;
20391;SDS011;10355;53.688;10.078;2023-06-10T08:13:53;7.28;;;1.60;;
20391;SDS011;10355;53.688;10.078;2023-06-10T08:16:35;2.85;;;1.45;;
20391;SDS011;10355;53.688;10.078;2023-06-10T08:19:18;6.45;;;1.60;;
20391;SDS011;10355;53.688;10.078;2023-06-10T08:22:01;6.97;;;1.83;;
20391;SDS011;10355;53.688;10.078;2023-06-10T08:24:44;3.92;;;1.60;;
20391;SDS011;10355;53.688;10.078;2023-06-10T08:27:31;4.15;;;1.70;;
20391;SDS011;10355;53.688;10.078;2023-06-10T08:30:14;6.10;;;1.50;;
20391;SDS011;10355;53.688;10.078;2023-06-10T08:32:57;5.03;;;1.70;;
20391;SDS011;10355;53.688;10.078;2023-06-10T08:35:41;3.78;;;1.75;;
20391;SDS011;10355;53.688;10.078;2023-06-10T08:38:23;9.55;;;1.77;;
20391;SDS011;10355;53.688;10.078;2023-06-10T08:41:06;5.90;;;2.00;;
20391;SDS011;10355;53.688;10.078;2023-06-10T08:43:53;5.75;;;1.60;;
20391;SDS011;10355;53.688;10.078;2023-06-10T08:46:37;3.42;;;1.73;;
20391;SDS011;10355;53.688;10.078;2023-06-10T08:49:21;5.95;;;1.55;;
20391;SDS011;10355;53.688;10.078;2023-06-10T08:52:05;7.07;;;1.80;;
20391;SDS011;10355;53.688;10.078;2023-06-10T08:54:49;3.38;;;1.42;;
20391;SDS011;10355;53.688;10.078;2023-06-10T08:57:34;5.50;;;1.88;;
20391;SDS011;10355;53.688;10.078;2023-06-10T09:00:18;7.55;;;1.98;;
20391;SDS011;10355;53.688;10.078;2023-06-10T09:03:01;9.00;;;2.33;;
20391;SDS011;10355;53.688;10.078;2023-06-10T09:05:46;6.18;;;1.92;;
20391;SDS011;10355;53.688;10.078;2023-06-10T09:08:28;8.93;;;2.00;;
20391;SDS011;10355;53.688;10.078;2023-06-10T09:11:11;4.43;;;1.80;;
20391;SDS011;10355;53.688;10.078;2023-06-10T09:13:54;3.85;;;1.65;;
20391;SDS011;10355;53.688;10.078;2023-06-10T09:16:38;7.10;;;1.98;;
20391;SDS011;10355;53.688;10.078;2023-06-10T09:19:21;6.63;;;1.80;;
20391;SDS011;10355;53.688;10.078;2023-06-10T09:22:04;4.70;;;1.65;;
20391;SDS011;10355;53.688;10.078;2023-06-10T09:24:47;6.13;;;1.70;;
20391;SDS011;10355;53.688;10.078;2023-06-10T09:27:30;5.30;;;1.73;;
20391;SDS011;10355;53.688;10.078;2023-06-10T09:30:20;6.72;;;1.95;;
20391;SDS011;10355;53.688;10.078;2023-06-10T09:33:10;7.35;;;1.95;;
20391;SDS011;10355;53.688;10.078;2023-06-10T09:35:53;8.80;;;2.15;;
20391;SDS011;10355;53.688;10.078;2023-06-10T09:38:38;6.82;;;2.17;;
20391;SDS011;10355;53.688;10.078;2023-06-10T09:41:21;4.68;;;1.75;;
20391;SDS011;10355;53.688;10.078;2023-06-10T09:44:05;7.25;;;2.17;;
20391;SDS011;10355;53.688;10.078;2023-06-10T09:46:51;9.23;;;1.88;;
20391;SDS011;10355;53.688;10.078;2023-06-10T09:49:38;6.68;;;2.05;;
20391;SDS011;10355;53.688;10.078;2023-06-10T09:52:22;6.72;;;1.80;;
20391;SDS011;10355;53.688;10.078;2023-06-10T09:55:07;3.42;;;1.75;;
20391;SDS011;10355;53.688;10.078;2023-06-10T09:57:53;5.05;;;2.10;;
20391;SDS011;10355;53.688;10.078;2023-06-10T10:00:36;8.93;;;2.10;;
20391;SDS011;10355;53.688;10.078;2023-06-10T10:03:22;6.18;;;2.17;;
20391;SDS011;10355;53.688;10.078;2023-06-10T10:06:06;8.25;;;2.40;;
20391;SDS011;10355;53.688;10.078;2023-06-10T10:08:50;6.25;;;2.08;;
20391;SDS011;10355;53.688;10.078;2023-06-10T10:11:33;6.65;;;1.75;;
20391;SDS011;10355;53.688;10.078;2023-06-10T10:14:17;8.85;;;2.40;;
20391;SDS011;10355;53.688;10.078;2023-06-10T10:17:01;7.20;;;2.30;;
20391;SDS011;10355;53.688;10.078;2023-06-10T10:19:46;6.20;;;2.00;;
20391;SDS011;10355;53.688;10.078;2023-06-10T10:22:31;7.10;;;1.95;;
20391;SDS011;10355;53.688;10.078;2023-06-10T10:25:16;7.57;;;2.10;;
20391;SDS011;10355;53.688;10.078;2023-06-10T10:28:08;6.28;;;2.05;;
20391;SDS011;10355;53.688;10.078;2023-06-10T10:30:52;5.28;;;2.20;;
20391;SDS011;10355;53.688;10.078;2023-06-10T10:33:36;4.07;;;2.10;;
20391;SDS011;10355;53.688;10.078;2023-06-10T10:36:20;5.90;;;2.38;;
20391;SDS011;10355;53.688;10.078;2023-06-10T10:39:05;6.43;;;2.50;;
20391;SDS011;10355;53.688;10.078;2023-06-10T10:41:49;7.25;;;2.40;;
20391;SDS011;10355;53.688;10.078;2023-06-10T10:44:32;5.43;;;1.90;;
20391;SDS011;10355;53.688;10.078;2023-06-10T10:47:16;5.45;;;2.03;;
20391;SDS011;10355;53.688;10.078;2023-06-10T10:50:02;7.28;;;2.00;;
20391;SDS011;10355;53.688;10.078;2023-06-10T10:52:55;9.40;;;2.40;;
20391;SDS011;10355;53.688;10.078;2023-06-10T10:55:40;7.75;;;2.58;;
20391;SDS011;10355;53.688;10.078;2023-06-10T10:58:24;12.93;;;2.20;;
20391;SDS011;10355;53.688;10.078;2023-06-10T11:01:10;6.47;;;2.00;;
20391;SDS011;10355;53.688;10.078;2023-06-10T11:03:53;7.00;;;2.17;;
20391;SDS011;10355;53.688;10.078;2023-06-10T11:06:39;6.68;;;2.25;;
20391;SDS011;10355;53.688;10.078;2023-06-10T11:09:25;7.93;;;2.40;;
20391;SDS011;10355;53.688;10.078;2023-06-10T11:12:09;7.25;;;2.25;;
20391;SDS011;10355;53.688;10.078;2023-06-10T11:14:55;5.75;;;2.10;;
20391;SDS011;10355;53.688;10.078;2023-06-10T11:17:38;6.45;;;2.50;;
20391;SDS011;10355;53.688;10.078;2023-06-10T11:20:44;6.60;;;2.28;;
20391;SDS011;10355;53.688;10.078;2023-06-10T11:26:31;6.72;;;2.75;;
20391;SDS011;10355;53.688;10.078;2023-06-10T11:29:17;5.90;;;2.35;;
20391;SDS011;10355;53.688;10.078;2023-06-10T11:32:01;5.50;;;2.58;;
20391;SDS011;10355;53.688;10.078;2023-06-10T11:34:51;5.45;;;2.38;;
20391;SDS011;10355;53.688;10.078;2023-06-10T11:37:34;10.10;;;2.60;;
20391;SDS011;10355;53.688;10.078;2023-06-10T11:40:17;4.80;;;2.20;;
20391;SDS011;10355;53.688;10.078;2023-06-10T11:42:59;4.72;;;2.20;;
20391;SDS011;10355;53.688;10.078;2023-06-10T11:45:44;8.52;;;2.65;;
20391;SDS011;10355;53.688;10.078;2023-06-10T11:48:27;7.65;;;2.25;;
20391;SDS011;10355;53.688;10.078;2023-06-10T11:51:11;7.88;;;2.22;;
20391;SDS011;10355;53.688;10.078;2023-06-10T11:53:55;7.10;;;2.38;;
20391;SDS011;10355;53.688;10.078;2023-06-10T11:56:38;10.68;;;2.25;;
20391;SDS011;10355;53.688;10.078;2023-06-10T11:59:21;4.47;;;2.35;;
20391;SDS011;10355;53.688;10.078;2023-06-10T12:02:15;7.20;;;2.50;;
20391;SDS011;10355;53.688;10.078;2023-06-10T12:05:09;4.72;;;2.15;;
20391;SDS011;10355;53.688;10.078;2023-06-10T12:08:07;7.22;;;2.70;;
20391;SDS011;10355;53.688;10.078;2023-06-10T12:10:50;8.23;;;2.30;;
20391;SDS011;10355;53.688;10.078;2023-06-10T12:13:32;7.57;;;2.30;;
20391;SDS011;10355;53.688;10.078;2023-06-10T12:16:16;6.75;;;2.60;;
20391;SDS011;10355;53.688;10.078;2023-06-10T12:19:04;5.03;;;2.25;;
20391;SDS011;10355;53.688;10.078;2023-06-10T12:21:47;4.88;;;2.10;;
20391;SDS011;10355;53.688;10.078;2023-06-10T12:24:30;6.10;;;2.40;;
20391;SDS011;10355;53.688;10.078;2023-06-10T12:27:12;7.13;;;2.33;;
20391;SDS011;10355;53.688;10.078;2023-06-10T12:29:55;6.07;;;2.22;;
20391;SDS011;10355;53.688;10.078;2023-06-10T12:32:43;8.85;;;2.50;;
20391;SDS011;10355;53.688;10.078;2023-06-10T12:35:27;6.68;;;2.33;;
20391;SDS011;10355;53.688;10.078;2023-06-10T12:38:10;6.47;;;2.28;;
20391;SDS011;10355;53.688;10.078;2023-06-10T12:40:54;7.30;;;2.58;;
20391;SDS011;10355;53.688;10.078;2023-06-10T12:43:37;6.82;;;2.53;;
20391;SDS011;10355;53.688;10.078;2023-06-10T12:46:22;8.98;;;2.33;;
20391;SDS011;10355;53.688;10.078;2023-06-10T12:49:05;5.68;;;2.20;;
20391;SDS011;10355;53.688;10.078;2023-06-10T12:51:50;7.05;;;2.38;;
20391;SDS011;10355;53.688;10.078;2023-06-10T12:54:34;7.32;;;2.63;;
20391;SDS011;10355;53.688;10.078;2023-06-10T12:57:17;7.15;;;2.50;;
20391;SDS011;10355;53.688;10.078;2023-06-10T12:59:59;7.10;;;2.40;;
20391;SDS011;10355;53.688;10.078;2023-06-10T13:02:46;6.90;;;2.38;;
20391;SDS011;10355;53.688;10.078;2023-06-10T13:05:29;8.18;;;2.47;;
20391;SDS011;10355;53.688;10.078;2023-06-10T13:08:14;4.68;;;1.80;;
20391;SDS011;10355;53.688;10.078;2023-06-10T13:10:57;5.93;;;2.30;;
20391;SDS011;10355;53.688;10.078;2023-06-10T13:13:39;7.75;;;2.03;;
20391;SDS011;10355;53.688;10.078;2023-06-10T13:16:22;6.03;;;2.13;;
20391;SDS011;10355;53.688;10.078;2023-06-10T13:19:05;4.28;;;2.05;;
20391;SDS011;10355;53.688;10.078;2023-06-10T13:21:48;5.13;;;2.10;;
20391;SDS011;10355;53.688;10.078;2023-06-10T13:24:32;6.93;;;2.10;;
20391;SDS011;10355;53.688;10.078;2023-06-10T13:27:15;6.93;;;2.38;;
20391;SDS011;10355;53.688;10.078;2023-06-10T13:29:58;8.27;;;2.47;;
20391;SDS011;10355;53.688;10.078;2023-06-10T13:32:40;7.47;;;2.25;;
20391;SDS011;10355;53.688;10.078;2023-06-10T13:35:23;7.63;;;2.30;;
20391;SDS011;10355;53.688;10.078;2023-06-10T13:38:06;5.75;;;2.05;;
20391;SDS011;10355;53.688;10.078;2023-06-10T13:40:50;4.78;;;2.05;;
20391;SDS011;10355;53.688;10.078;2023-06-10T13:43:33;6.63;;;2.10;;
20391;SDS011;10355;53.688;10.078;2023-06-10T13:46:16;5.85;;;2.10;;
20391;SDS011;10355;53.688;10.078;2023-06-10T13:48:59;6.03;;;2.30;;
20391;SDS011;10355;53.688;10.078;2023-06-10T13:51:42;6.13;;;1.92;;
20391;SDS011;10355;53.688;10.078;2023-06-10T13:54:24;6.78;;;2.10;;
20391;SDS011;10355;53.688;10.078;2023-06-10T13:57:10;7.88;;;1.95;;
20391;SDS011;10355;53.688;10.078;2023-06-10T13:59:52;8.73;;;2.13;;
20391;SDS011;10355;53.688;10.078;2023-06-10T14:02:37;5.78;;;1.90;;
20391;SDS011;10355;53.688;10.078;2023-06-10T14:05:20;7.53;;;2.03;;
20391;SDS011;10355;53.688;10.078;2023-06-10T14:08:03;9.50;;;2.38;;
20391;SDS011;10355;53.688;10.078;2023-06-10T14:10:46;7.85;;;2.40;;
20391;SDS011;10355;53.688;10.078;2023-06-10T14:13:31;8.07;;;2.72;;
20391;SDS011;10355;53.688;10.078;2023-06-10T14:16:15;8.57;;;2.60;;
20391;SDS011;10355;53.688;10.078;2023-06-10T14:18:57;5.15;;;2.15;;
20391;SDS011;10355;53.688;10.078;2023-06-10T14:21:40;4.10;;;2.00;;
20391;SDS011;10355;53.688;10.078;2023-06-10T14:24:23;9.10;;;2.45;;
20391;SDS011;10355;53.688;10.078;2023-06-10T14:27:06;8.90;;;2.20;;
20391;SDS011;10355;53.688;10.078;2023-06-10T14:29:50;6.40;;;2.47;;
20391;SDS011;10355;53.688;10.078;2023-06-10T14:32:33;7.40;;;2.95;;
20391;SDS011;10355;53.688;10.078;2023-06-10T14:35:16;6.28;;;2.63;;
20391;SDS011;10355;53.688;10.078;2023-06-10T14:37:59;8.10;;;2.28;;
20391;SDS011;10355;53.688;10.078;2023-06-10T14:40:41;7.47;;;2.00;;
20391;SDS011;10355;53.688;10.078;2023-06-10T14:43:24;10.45;;;3.00;;
20391;SDS011;10355;53.688;10.078;2023-06-10T14:46:08;6.35;;;2.53;;
20391;SDS011;10355;53.688;10.078;2023-06-10T14:48:51;7.03;;;2.30;;
20391;SDS011;10355;53.688;10.078;2023-06-10T14:51:34;11.48;;;2.88;;
20391;SDS011;10355;53.688;10.078;2023-06-10T14:54:17;6.13;;;2.17;;
20391;SDS011;10355;53.688;10.078;2023-06-10T14:57:00;6.45;;;2.22;;
20391;SDS011;10355;53.688;10.078;2023-06-10T14:59:43;8.05;;;1.92;;
20391;SDS011;10355;53.688;10.078;2023-06-10T15:02:27;9.13;;;2.15;;
20391;SDS011;10355;53.688;10.078;2023-06-10T15:05:09;6.53;;;2.00;;
20391;SDS011;10355;53.688;10.078;2023-06-10T15:07:52;6.28;;;1.83;;
20391;SDS011;10355;53.688;10.078;2023-06-10T15:10:35;5.95;;;2.13;;
20391;SDS011;10355;53.688;10.078;2023-06-10T15:13:18;6.70;;;1.98;;
20391;SDS011;10355;53.688;10.078;2023-06-10T15:16:00;5.68;;;1.90;;
20391;SDS011;10355;53.688;10.078;2023-06-10T15:18:46;5.35;;;1.88;;
20391;SDS011;10355;53.688;10.078;2023-06-10T15:21:28;7.75;;;2.40;;
20391;SDS011;10355;53.688;10.078;2023-06-10T15:24:11;7.00;;;2.53;;
20391;SDS011;10355;53.688;10.078;2023-06-10T15:26:54;7.90;;;2.67;;
20391;SDS011;10355;53.688;10.078;2023-06-10T15:29:37;5.10;;;2.00;;
20391;SDS011;10355;53.688;10.078;2023-06-10T15:32:20;6.80;;;2.30;;
20391;SDS011;10355;53.688;10.078;2023-06-10T15:35:04;5.95;;;2.10;;
20391;SDS011;10355;53.688;10.078;2023-06-10T15:37:48;6.68;;;2.30;;
20391;SDS011;10355;53.688;10.078;2023-06-10T15:40:30;5.05;;;1.98;;
20391;SDS011;10355;53.688;10.078;2023-06-10T15:43:13;6.10;;;2.25;;
20391;SDS011;10355;53.688;10.078;2023-06-10T15:45:56;4.63;;;1.90;;
20391;SDS011;10355;53.688;10.078;2023-06-10T15:48:39;6.53;;;2.42;;
20391;SDS011;10355;53.688;10.078;2023-06-10T15:51:23;9.05;;;2.03;;
20391;SDS011;10355;53.688;10.078;2023-06-10T15:54:05;4.00;;;2.00;;
20391;SDS011;10355;53.688;10.078;2023-06-10T15:56:48;7.20;;;2.17;;
20391;SDS011;10355;53.688;10.078;2023-06-10T15:59:31;4.15;;;2.00;;
20391;SDS011;10355;53.688;10.078;2023-06-10T16:02:14;8.23;;;2.30;;
20391;SDS011;10355;53.688;10.078;2023-06-10T16:04:56;6.53;;;2.20;;
20391;SDS011;10355;53.688;10.078;2023-06-10T16:07:40;7.93;;;2.60;;
20391;SDS011;10355;53.688;10.078;2023-06-10T16:10:23;7.15;;;2.47;;
20391;SDS011;10355;53.688;10.078;2023-06-10T16:13:07;8.13;;;2.50;;
20391;SDS011;10355;53.688;10.078;2023-06-10T16:15:49;6.60;;;2.20;;